Airfield :
LOGIN :

Register | Disclaimer

   EN    FR    IT 

 










Legend :    VFR   Marginal VFR   IFR   Intensive IFR   Very Intensive IFR
Visi :
Ceiling :
>= 8 km
>= 3000ft
5 to 8 km
1000 to 3000 ft
1500m to 5 km
500 to 1000 ft
800 to 1500m
200 to 500 ft
< 800m
< 200 ft
Symbols :   Thunderstorms  Fog  Heavy snow  Heavy precipitations  Wind > 20 kt
SIGMETs :     Misc.  Thunderstorms  Icing  Turbulence  Mountain Waves  Volcanic Ashes






- Airport Elevation : 290 ft
- IATA code : OSI


LDOS - Osijek

CURRENT METAR :
  • 290830Z 07008KT 6000 NSC 02/01 Q1021

EXPIRED METARs :
  • 290800Z 07007KT 6000 NSC 01/00 Q1021
  • 290730Z 07005KT CAVOK 01/M00 Q1021
  • 290700Z 07006KT CAVOK 00/M01 Q1021
  • 290630Z 08010KT CAVOK 00/M01 Q1020
  • 290600Z 08009KT CAVOK 00/M01 Q1020

TAF TAF LDOS
Valid from the 29 at 06:00 until the 30 at 06:00 UTC


290525Z 2906/3006 09010KT 9999 SCT020 TX05/2912Z TN00/2906Z
PROB30
TEMPO 2906/2909 05008KT 2000 BR
PROB30
TEMPO 2909/2916 BKN012
PROB30
TEMPO 3003/3006 4500 -RA BKN014



MET'MAP, your aeronautical weather chart ! - Copyright ORBIFLY December 2007 - Disclaimer

ORBIFLY MET'MAP TEAM :

Programming & Development : Alexandra Zaïnal
Original concept : Baudouin d'Aumeries
Technical & hardware support : Manuel Goepfert
Assistance : Marc-Olivier Méhu




SOURCES & CREDITS :

   NOAA